Terminal Aerodrome Forecast
Issued by NWS

Home | Current Version | Previous Version | Graphics & Text | Print | Product List | Glossary On
Versions: 1 2 3 4 5 6 7 8 9 10 11 12 13 14 15 16 17 18 19 20 21 22 23 24 25
559
FTUS43 KLOT 260907 AAA
TAFORD
TAF AMD
KORD 260907Z 2609/2712 19005KT P6SM FEW100 SCT250
     FM261500 23009KT P6SM SCT060 BKN200
     FM270000 29008KT P6SM BKN060
     FM270300 32010KT P6SM BKN050=

USA.gov is the U.S. government's official web portal to all federal, state and local government web resources and services.